sensor_id;sensor_type;location;lat;lon;timestamp;noise_LAeq;noise_LA_min;noise_LA_max;noise_LA01;noise_LA95
68945;Laerm;55984;48.790;8.990;2023-04-25T00:01:59;43.12;37.72;50.50;;
68945;Laerm;55984;48.790;8.990;2023-04-25T00:04:27;42.42;37.49;47.59;;
68945;Laerm;55984;48.790;8.990;2023-04-25T00:06:56;40.39;35.70;48.23;;
68945;Laerm;55984;48.790;8.990;2023-04-25T00:09:31;41.40;37.15;47.69;;
68945;Laerm;55984;48.790;8.990;2023-04-25T00:11:58;39.42;34.93;45.48;;
68945;Laerm;55984;48.790;8.990;2023-04-25T00:14:24;41.89;37.27;55.48;;
68945;Laerm;55984;48.790;8.990;2023-04-25T00:16:50;42.27;35.86;53.01;;
68945;Laerm;55984;48.790;8.990;2023-04-25T00:19:16;41.87;34.21;48.01;;
68945;Laerm;55984;48.790;8.990;2023-04-25T00:21:42;40.23;34.79;47.25;;
68945;Laerm;55984;48.790;8.990;2023-04-25T00:24:12;38.90;33.55;45.26;;
68945;Laerm;55984;48.790;8.990;2023-04-25T00:26:40;43.85;35.37;50.47;;
68945;Laerm;55984;48.790;8.990;2023-04-25T00:29:06;42.86;38.65;47.48;;
68945;Laerm;55984;48.790;8.990;2023-04-25T00:31:32;40.98;36.65;47.49;;
68945;Laerm;55984;48.790;8.990;2023-04-25T00:33:59;40.51;36.77;45.77;;
68945;Laerm;55984;48.790;8.990;2023-04-25T00:36:24;42.20;38.43;46.13;;
68945;Laerm;55984;48.790;8.990;2023-04-25T00:38:50;40.17;36.07;46.04;;
68945;Laerm;55984;48.790;8.990;2023-04-25T00:41:17;40.16;35.49;44.87;;
68945;Laerm;55984;48.790;8.990;2023-04-25T00:43:43;41.36;36.21;47.80;;
68945;Laerm;55984;48.790;8.990;2023-04-25T00:46:10;41.89;37.78;49.84;;
68945;Laerm;55984;48.790;8.990;2023-04-25T00:48:36;42.05;37.23;48.98;;
68945;Laerm;55984;48.790;8.990;2023-04-25T00:51:02;40.60;36.76;48.24;;
68945;Laerm;55984;48.790;8.990;2023-04-25T00:53:28;42.82;40.23;47.78;;
68945;Laerm;55984;48.790;8.990;2023-04-25T00:55:57;42.09;38.91;49.90;;
68945;Laerm;55984;48.790;8.990;2023-04-25T00:58:23;40.38;36.01;45.23;;
68945;Laerm;55984;48.790;8.990;2023-04-25T01:00:50;43.92;35.97;54.40;;
68945;Laerm;55984;48.790;8.990;2023-04-25T01:03:18;41.65;38.24;47.46;;
68945;Laerm;55984;48.790;8.990;2023-04-25T01:05:47;42.22;35.41;51.43;;
68945;Laerm;55984;48.790;8.990;2023-04-25T01:08:13;44.35;38.30;53.09;;
68945;Laerm;55984;48.790;8.990;2023-04-25T01:10:40;44.58;41.16;50.86;;
68945;Laerm;55984;48.790;8.990;2023-04-25T01:13:06;43.83;37.88;53.21;;
68945;Laerm;55984;48.790;8.990;2023-04-25T01:15:32;42.95;38.01;47.77;;
68945;Laerm;55984;48.790;8.990;2023-04-25T01:17:58;41.99;37.87;47.08;;
68945;Laerm;55984;48.790;8.990;2023-04-25T01:20:26;43.64;39.03;53.57;;
68945;Laerm;55984;48.790;8.990;2023-04-25T01:22:54;44.26;38.38;49.79;;
68945;Laerm;55984;48.790;8.990;2023-04-25T01:25:22;43.78;39.67;51.26;;
68945;Laerm;55984;48.790;8.990;2023-04-25T01:27:48;42.53;37.89;49.59;;
68945;Laerm;55984;48.790;8.990;2023-04-25T01:30:14;43.21;38.94;49.95;;
68945;Laerm;55984;48.790;8.990;2023-04-25T01:32:42;44.18;38.68;48.89;;
68945;Laerm;55984;48.790;8.990;2023-04-25T01:35:10;43.36;37.67;51.07;;
68945;Laerm;55984;48.790;8.990;2023-04-25T01:37:40;41.25;37.68;46.00;;
68945;Laerm;55984;48.790;8.990;2023-04-25T01:40:08;42.91;38.78;47.72;;
68945;Laerm;55984;48.790;8.990;2023-04-25T01:42:38;42.54;38.32;47.48;;
68945;Laerm;55984;48.790;8.990;2023-04-25T01:45:05;40.99;36.96;46.49;;
68945;Laerm;55984;48.790;8.990;2023-04-25T01:47:31;42.40;37.53;49.38;;
68945;Laerm;55984;48.790;8.990;2023-04-25T01:50:00;43.43;37.35;49.78;;
68945;Laerm;55984;48.790;8.990;2023-04-25T01:52:26;42.09;36.09;56.86;;
68945;Laerm;55984;48.790;8.990;2023-04-25T01:54:53;42.66;36.57;49.27;;
68945;Laerm;55984;48.790;8.990;2023-04-25T01:57:20;41.24;36.83;47.99;;
68945;Laerm;55984;48.790;8.990;2023-04-25T01:59:46;39.38;35.75;43.85;;
68945;Laerm;55984;48.790;8.990;2023-04-25T02:02:12;42.34;39.43;48.66;;
68945;Laerm;55984;48.790;8.990;2023-04-25T02:04:41;42.48;38.43;47.05;;
68945;Laerm;55984;48.790;8.990;2023-04-25T02:07:07;40.87;37.41;46.97;;
68945;Laerm;55984;48.790;8.990;2023-04-25T02:09:37;40.53;37.53;44.56;;
68945;Laerm;55984;48.790;8.990;2023-04-25T02:12:03;42.56;37.30;48.14;;
68945;Laerm;55984;48.790;8.990;2023-04-25T02:14:30;41.85;38.68;47.67;;
68945;Laerm;55984;48.790;8.990;2023-04-25T02:16:59;43.95;39.29;49.53;;
68945;Laerm;55984;48.790;8.990;2023-04-25T02:19:25;43.53;38.96;51.94;;
68945;Laerm;55984;48.790;8.990;2023-04-25T02:21:52;42.31;38.29;48.63;;
68945;Laerm;55984;48.790;8.990;2023-04-25T02:24:19;43.26;39.39;48.23;;
68945;Laerm;55984;48.790;8.990;2023-04-25T02:26:52;45.10;41.07;48.51;;
68945;Laerm;55984;48.790;8.990;2023-04-25T02:29:18;43.82;38.96;48.27;;
68945;Laerm;55984;48.790;8.990;2023-04-25T02:31:44;42.51;39.07;47.68;;
68945;Laerm;55984;48.790;8.990;2023-04-25T02:34:12;43.85;40.56;52.18;;
68945;Laerm;55984;48.790;8.990;2023-04-25T02:36:38;44.68;41.30;49.74;;
68945;Laerm;55984;48.790;8.990;2023-04-25T02:39:05;44.40;41.77;50.17;;
68945;Laerm;55984;48.790;8.990;2023-04-25T02:41:31;44.44;39.51;54.25;;
68945;Laerm;55984;48.790;8.990;2023-04-25T02:44:01;44.00;41.28;49.68;;
68945;Laerm;55984;48.790;8.990;2023-04-25T02:46:27;44.81;41.31;54.61;;
68945;Laerm;55984;48.790;8.990;2023-04-25T02:48:53;44.41;40.60;49.74;;
68945;Laerm;55984;48.790;8.990;2023-04-25T02:51:19;46.32;42.67;55.09;;
68945;Laerm;55984;48.790;8.990;2023-04-25T02:53:45;46.96;43.71;51.84;;
68945;Laerm;55984;48.790;8.990;2023-04-25T02:56:11;45.18;41.54;48.87;;
68945;Laerm;55984;48.790;8.990;2023-04-25T02:58:41;44.95;41.08;52.55;;
68945;Laerm;55984;48.790;8.990;2023-04-25T03:01:07;45.99;42.84;51.68;;
68945;Laerm;55984;48.790;8.990;2023-04-25T03:03:33;46.33;43.65;50.88;;
68945;Laerm;55984;48.790;8.990;2023-04-25T03:06:00;45.82;43.41;49.77;;
68945;Laerm;55984;48.790;8.990;2023-04-25T03:08:26;47.41;43.64;52.22;;
68945;Laerm;55984;48.790;8.990;2023-04-25T03:10:58;48.08;45.63;55.20;;
68945;Laerm;55984;48.790;8.990;2023-04-25T03:13:26;46.29;42.36;50.15;;
68945;Laerm;55984;48.790;8.990;2023-04-25T03:15:57;46.99;42.81;51.52;;
68945;Laerm;55984;48.790;8.990;2023-04-25T03:18:23;47.27;43.01;51.97;;
68945;Laerm;55984;48.790;8.990;2023-04-25T03:20:49;47.08;42.09;52.09;;
68945;Laerm;55984;48.790;8.990;2023-04-25T03:23:15;48.93;43.42;61.96;;
68945;Laerm;55984;48.790;8.990;2023-04-25T03:25:41;47.22;42.97;52.58;;
68945;Laerm;55984;48.790;8.990;2023-04-25T03:28:08;47.61;44.79;56.96;;
68945;Laerm;55984;48.790;8.990;2023-04-25T03:30:34;47.03;43.81;52.52;;
68945;Laerm;55984;48.790;8.990;2023-04-25T03:32:59;47.56;44.07;52.92;;
68945;Laerm;55984;48.790;8.990;2023-04-25T03:35:25;48.21;44.38;55.60;;
68945;Laerm;55984;48.790;8.990;2023-04-25T03:37:51;47.89;44.02;54.98;;
68945;Laerm;55984;48.790;8.990;2023-04-25T03:40:17;50.47;44.75;61.08;;
68945;Laerm;55984;48.790;8.990;2023-04-25T03:42:43;52.14;45.58;62.11;;
68945;Laerm;55984;48.790;8.990;2023-04-25T03:45:09;51.06;45.30;62.57;;
68945;Laerm;55984;48.790;8.990;2023-04-25T03:47:35;50.97;46.14;59.63;;
68945;Laerm;55984;48.790;8.990;2023-04-25T03:50:01;50.16;43.96;63.05;;
68945;Laerm;55984;48.790;8.990;2023-04-25T03:52:30;51.52;44.05;62.59;;
68945;Laerm;55984;48.790;8.990;2023-04-25T03:54:56;49.89;43.38;62.66;;
68945;Laerm;55984;48.790;8.990;2023-04-25T03:57:21;47.58;43.78;54.35;;
68945;Laerm;55984;48.790;8.990;2023-04-25T03:59:47;46.56;43.53;49.91;;
68945;Laerm;55984;48.790;8.990;2023-04-25T04:02:13;47.53;44.88;54.05;;
68945;Laerm;55984;48.790;8.990;2023-04-25T04:04:39;49.00;45.39;57.16;;
68945;Laerm;55984;48.790;8.990;2023-04-25T04:07:05;48.37;45.82;55.83;;
68945;Laerm;55984;48.790;8.990;2023-04-25T04:09:31;48.83;44.49;63.67;;
68945;Laerm;55984;48.790;8.990;2023-04-25T04:11:57;48.50;44.78;52.87;;
68945;Laerm;55984;48.790;8.990;2023-04-25T04:14:23;48.29;45.56;51.44;;
68945;Laerm;55984;48.790;8.990;2023-04-25T04:16:51;50.01;47.43;53.12;;
68945;Laerm;55984;48.790;8.990;2023-04-25T04:19:17;49.51;46.82;54.01;;
68945;Laerm;55984;48.790;8.990;2023-04-25T04:21:43;50.92;46.78;61.77;;
68945;Laerm;55984;48.790;8.990;2023-04-25T04:24:09;48.01;45.54;54.30;;
68945;Laerm;55984;48.790;8.990;2023-04-25T04:26:35;48.07;45.47;51.94;;
68945;Laerm;55984;48.790;8.990;2023-04-25T04:29:02;47.77;44.77;52.58;;
68945;Laerm;55984;48.790;8.990;2023-04-25T04:31:29;48.65;45.28;53.20;;
68945;Laerm;55984;48.790;8.990;2023-04-25T04:33:55;47.94;45.30;50.51;;
68945;Laerm;55984;48.790;8.990;2023-04-25T04:36:22;48.66;45.34;59.37;;
68945;Laerm;55984;48.790;8.990;2023-04-25T04:38:48;47.36;44.94;52.84;;
68945;Laerm;55984;48.790;8.990;2023-04-25T04:41:15;47.88;44.42;56.56;;
68945;Laerm;55984;48.790;8.990;2023-04-25T04:43:41;48.34;44.82;66.06;;
68945;Laerm;55984;48.790;8.990;2023-04-25T04:46:08;49.40;44.40;67.41;;
68945;Laerm;55984;48.790;8.990;2023-04-25T04:48:35;48.40;44.95;63.23;;
68945;Laerm;55984;48.790;8.990;2023-04-25T04:51:01;49.81;46.06;68.94;;
68945;Laerm;55984;48.790;8.990;2023-04-25T04:53:27;48.61;44.54;63.21;;
68945;Laerm;55984;48.790;8.990;2023-04-25T04:55:53;48.39;44.99;66.80;;
68945;Laerm;55984;48.790;8.990;2023-04-25T04:58:19;60.32;45.58;78.64;;
68945;Laerm;55984;48.790;8.990;2023-04-25T05:00:45;47.12;44.22;54.27;;
68945;Laerm;55984;48.790;8.990;2023-04-25T05:03:11;48.78;43.24;62.06;;
68945;Laerm;55984;48.790;8.990;2023-04-25T05:05:38;47.68;43.77;66.57;;
68945;Laerm;55984;48.790;8.990;2023-04-25T05:08:06;48.41;44.86;59.85;;
68945;Laerm;55984;48.790;8.990;2023-04-25T05:10:32;49.63;46.01;66.43;;
68945;Laerm;55984;48.790;8.990;2023-04-25T05:12:59;49.33;44.61;66.63;;
68945;Laerm;55984;48.790;8.990;2023-04-25T05:15:25;51.07;45.84;67.16;;
68945;Laerm;55984;48.790;8.990;2023-04-25T05:17:52;50.66;45.82;67.27;;
68945;Laerm;55984;48.790;8.990;2023-04-25T05:20:18;48.50;44.24;65.14;;
68945;Laerm;55984;48.790;8.990;2023-04-25T05:22:44;52.30;45.46;67.69;;
68945;Laerm;55984;48.790;8.990;2023-04-25T05:25:11;51.61;45.44;67.01;;
68945;Laerm;55984;48.790;8.990;2023-04-25T05:27:40;57.34;45.83;72.58;;
68945;Laerm;55984;48.790;8.990;2023-04-25T05:30:08;49.87;44.99;67.80;;
68945;Laerm;55984;48.790;8.990;2023-04-25T05:32:34;50.37;44.09;69.05;;
68945;Laerm;55984;48.790;8.990;2023-04-25T05:35:01;54.55;45.82;72.26;;
68945;Laerm;55984;48.790;8.990;2023-04-25T05:37:28;52.37;42.95;72.50;;
68945;Laerm;55984;48.790;8.990;2023-04-25T05:39:56;48.04;41.99;64.82;;
68945;Laerm;55984;48.790;8.990;2023-04-25T05:42:22;51.76;41.53;70.14;;
68945;Laerm;55984;48.790;8.990;2023-04-25T05:44:47;49.39;42.93;67.32;;
68945;Laerm;55984;48.790;8.990;2023-04-25T05:47:13;52.05;43.22;68.80;;
68945;Laerm;55984;48.790;8.990;2023-04-25T05:49:40;49.48;43.35;67.47;;
68945;Laerm;55984;48.790;8.990;2023-04-25T05:52:06;50.59;42.51;62.00;;
68945;Laerm;55984;48.790;8.990;2023-04-25T05:54:32;50.58;43.25;66.82;;
68945;Laerm;55984;48.790;8.990;2023-04-25T05:56:59;49.90;42.44;71.46;;
68945;Laerm;55984;48.790;8.990;2023-04-25T05:59:25;52.60;42.16;65.47;;
68945;Laerm;55984;48.790;8.990;2023-04-25T06:01:51;53.65;48.38;68.75;;
68945;Laerm;55984;48.790;8.990;2023-04-25T06:04:17;51.83;48.82;66.38;;
68945;Laerm;55984;48.790;8.990;2023-04-25T06:06:43;51.85;43.88;67.14;;
68945;Laerm;55984;48.790;8.990;2023-04-25T06:09:09;57.89;48.89;64.07;;
68945;Laerm;55984;48.790;8.990;2023-04-25T06:11:36;58.95;53.66;67.16;;
68945;Laerm;55984;48.790;8.990;2023-04-25T06:14:01;57.10;41.56;61.11;;
68945;Laerm;55984;48.790;8.990;2023-04-25T06:16:27;49.72;42.14;67.56;;
68945;Laerm;55984;48.790;8.990;2023-04-25T06:18:53;52.82;42.19;68.31;;
68945;Laerm;55984;48.790;8.990;2023-04-25T06:21:19;53.01;43.56;66.94;;
68945;Laerm;55984;48.790;8.990;2023-04-25T06:23:45;50.28;42.02;67.98;;
68945;Laerm;55984;48.790;8.990;2023-04-25T06:26:11;54.63;42.58;77.61;;
68945;Laerm;55984;48.790;8.990;2023-04-25T06:28:37;51.80;41.40;65.08;;
68945;Laerm;55984;48.790;8.990;2023-04-25T06:31:03;55.22;40.77;70.52;;
68945;Laerm;55984;48.790;8.990;2023-04-25T06:33:29;54.18;42.60;66.77;;
68945;Laerm;55984;48.790;8.990;2023-04-25T06:35:55;53.04;42.19;68.23;;
68945;Laerm;55984;48.790;8.990;2023-04-25T06:38:21;53.44;41.40;73.88;;
68945;Laerm;55984;48.790;8.990;2023-04-25T06:40:48;55.44;43.87;72.69;;
68945;Laerm;55984;48.790;8.990;2023-04-25T06:43:14;54.79;45.56;73.99;;
68945;Laerm;55984;48.790;8.990;2023-04-25T06:45:39;54.76;43.87;76.37;;
68945;Laerm;55984;48.790;8.990;2023-04-25T06:48:06;55.85;46.49;65.76;;
68945;Laerm;55984;48.790;8.990;2023-04-25T06:50:33;55.83;43.94;71.11;;
68945;Laerm;55984;48.790;8.990;2023-04-25T06:53:00;58.56;43.69;70.61;;
68945;Laerm;55984;48.790;8.990;2023-04-25T06:55:27;56.91;43.53;71.23;;
68945;Laerm;55984;48.790;8.990;2023-04-25T06:57:53;59.12;42.91;77.58;;
68945;Laerm;55984;48.790;8.990;2023-04-25T07:00:20;53.74;43.48;76.10;;
68945;Laerm;55984;48.790;8.990;2023-04-25T07:02:46;55.79;44.21;71.96;;
68945;Laerm;55984;48.790;8.990;2023-04-25T07:05:12;57.77;45.05;76.19;;
68945;Laerm;55984;48.790;8.990;2023-04-25T07:07:38;59.53;46.88;80.09;;
68945;Laerm;55984;48.790;8.990;2023-04-25T07:10:04;63.31;46.81;82.17;;
68945;Laerm;55984;48.790;8.990;2023-04-25T07:12:30;61.31;46.96;77.71;;
68945;Laerm;55984;48.790;8.990;2023-04-25T07:14:56;60.98;45.69;81.81;;
68945;Laerm;55984;48.790;8.990;2023-04-25T07:17:22;54.02;46.20;69.62;;
68945;Laerm;55984;48.790;8.990;2023-04-25T07:19:48;58.64;47.79;73.75;;
68945;Laerm;55984;48.790;8.990;2023-04-25T07:22:15;61.07;47.22;77.23;;
68945;Laerm;55984;48.790;8.990;2023-04-25T07:24:42;57.81;46.82;73.48;;
68945;Laerm;55984;48.790;8.990;2023-04-25T07:27:12;58.14;46.44;75.59;;
68945;Laerm;55984;48.790;8.990;2023-04-25T07:29:38;57.26;45.58;74.75;;
68945;Laerm;55984;48.790;8.990;2023-04-25T07:32:04;50.11;43.43;59.53;;
68945;Laerm;55984;48.790;8.990;2023-04-25T07:34:30;57.46;46.02;70.35;;
68945;Laerm;55984;48.790;8.990;2023-04-25T07:36:57;58.03;46.18;72.66;;
68945;Laerm;55984;48.790;8.990;2023-04-25T07:39:25;56.83;45.29;74.44;;
68945;Laerm;55984;48.790;8.990;2023-04-25T07:41:51;54.50;44.13;71.04;;
68945;Laerm;55984;48.790;8.990;2023-04-25T07:44:18;52.48;46.19;66.52;;
68945;Laerm;55984;48.790;8.990;2023-04-25T07:46:45;54.62;45.49;71.08;;
68945;Laerm;55984;48.790;8.990;2023-04-25T07:49:11;52.61;46.53;66.17;;
68945;Laerm;55984;48.790;8.990;2023-04-25T07:51:40;58.70;45.02;71.56;;
68945;Laerm;55984;48.790;8.990;2023-04-25T07:54:09;56.72;45.35;73.04;;
68945;Laerm;55984;48.790;8.990;2023-04-25T07:56:35;56.84;44.70;70.28;;
68945;Laerm;55984;48.790;8.990;2023-04-25T07:59:02;57.25;45.41;69.34;;
68945;Laerm;55984;48.790;8.990;2023-04-25T08:01:28;55.00;45.29;65.28;;
68945;Laerm;55984;48.790;8.990;2023-04-25T08:03:57;54.58;44.58;69.25;;
68945;Laerm;55984;48.790;8.990;2023-04-25T08:06:24;54.22;46.65;67.68;;
68945;Laerm;55984;48.790;8.990;2023-04-25T08:08:53;55.50;45.84;71.74;;
68945;Laerm;55984;48.790;8.990;2023-04-25T08:11:20;57.57;45.67;66.89;;
68945;Laerm;55984;48.790;8.990;2023-04-25T08:13:47;57.73;44.59;66.88;;
68945;Laerm;55984;48.790;8.990;2023-04-25T08:16:15;53.02;44.57;61.89;;
68945;Laerm;55984;48.790;8.990;2023-04-25T08:18:44;53.19;44.38;59.80;;
68945;Laerm;55984;48.790;8.990;2023-04-25T08:21:10;53.75;48.53;59.49;;
68945;Laerm;55984;48.790;8.990;2023-04-25T08:23:37;54.65;43.26;59.32;;
68945;Laerm;55984;48.790;8.990;2023-04-25T08:26:07;56.13;45.12;60.53;;
68945;Laerm;55984;48.790;8.990;2023-04-25T08:28:38;52.44;45.82;65.82;;
68945;Laerm;55984;48.790;8.990;2023-04-25T08:31:04;56.60;46.29;64.99;;
68945;Laerm;55984;48.790;8.990;2023-04-25T08:33:30;52.73;44.29;60.21;;
68945;Laerm;55984;48.790;8.990;2023-04-25T08:35:58;54.95;44.21;66.00;;
68945;Laerm;55984;48.790;8.990;2023-04-25T08:38:28;57.37;46.39;67.52;;
68945;Laerm;55984;48.790;8.990;2023-04-25T08:40:57;54.02;45.32;62.88;;
68945;Laerm;55984;48.790;8.990;2023-04-25T08:43:29;50.28;46.48;59.46;;
68945;Laerm;55984;48.790;8.990;2023-04-25T08:46:00;53.44;47.02;67.40;;
68945;Laerm;55984;48.790;8.990;2023-04-25T08:48:32;49.63;45.03;56.87;;
68945;Laerm;55984;48.790;8.990;2023-04-25T08:51:01;51.34;46.14;62.51;;
68945;Laerm;55984;48.790;8.990;2023-04-25T08:53:30;51.68;45.69;57.64;;
68945;Laerm;55984;48.790;8.990;2023-04-25T08:55:58;50.85;43.89;62.55;;
68945;Laerm;55984;48.790;8.990;2023-04-25T08:58:24;53.20;44.91;67.41;;
68945;Laerm;55984;48.790;8.990;2023-04-25T09:00:51;55.70;46.98;67.75;;
68945;Laerm;55984;48.790;8.990;2023-04-25T09:03:18;52.22;45.85;65.50;;
68945;Laerm;55984;48.790;8.990;2023-04-25T09:05:44;52.19;44.93;66.71;;
68945;Laerm;55984;48.790;8.990;2023-04-25T09:08:10;50.29;46.85;63.87;;
68945;Laerm;55984;48.790;8.990;2023-04-25T09:10:37;53.17;47.78;66.55;;
68945;Laerm;55984;48.790;8.990;2023-04-25T09:13:08;50.56;46.63;60.83;;
68945;Laerm;55984;48.790;8.990;2023-04-25T09:15:49;51.25;46.67;67.53;;
68945;Laerm;55984;48.790;8.990;2023-04-25T09:18:29;53.86;49.89;66.34;;
68945;Laerm;55984;48.790;8.990;2023-04-25T09:20:58;53.71;49.12;62.91;;
68945;Laerm;55984;48.790;8.990;2023-04-25T09:23:45;53.26;49.29;63.24;;
68945;Laerm;55984;48.790;8.990;2023-04-25T09:26:19;53.43;49.26;63.82;;
68945;Laerm;55984;48.790;8.990;2023-04-25T09:28:46;53.00;50.00;59.65;;
68945;Laerm;55984;48.790;8.990;2023-04-25T09:31:21;53.15;49.16;63.19;;
68945;Laerm;55984;48.790;8.990;2023-04-25T09:33:49;52.00;47.98;67.75;;
68945;Laerm;55984;48.790;8.990;2023-04-25T09:36:15;52.71;47.25;67.97;;
68945;Laerm;55984;48.790;8.990;2023-04-25T09:38:46;53.07;47.49;69.14;;
68945;Laerm;55984;48.790;8.990;2023-04-25T09:41:12;51.06;46.86;58.87;;
68945;Laerm;55984;48.790;8.990;2023-04-25T09:43:39;52.64;48.36;69.80;;
68945;Laerm;55984;48.790;8.990;2023-04-25T09:46:09;53.81;48.32;64.42;;
68945;Laerm;55984;48.790;8.990;2023-04-25T09:48:36;52.40;47.59;63.80;;
68945;Laerm;55984;48.790;8.990;2023-04-25T09:53:29;54.33;48.71;67.12;;
68945;Laerm;55984;48.790;8.990;2023-04-25T09:55:55;54.72;47.61;66.95;;
68945;Laerm;55984;48.790;8.990;2023-04-25T09:58:24;55.12;48.29;69.32;;
68945;Laerm;55984;48.790;8.990;2023-04-25T10:00:51;52.67;49.41;65.91;;
68945;Laerm;55984;48.790;8.990;2023-04-25T10:03:19;53.99;48.56;66.39;;
68945;Laerm;55984;48.790;8.990;2023-04-25T10:05:48;51.29;48.22;66.10;;
68945;Laerm;55984;48.790;8.990;2023-04-25T10:08:14;51.24;48.03;64.54;;
68945;Laerm;55984;48.790;8.990;2023-04-25T10:10:42;51.73;47.69;69.88;;
68945;Laerm;55984;48.790;8.990;2023-04-25T10:13:08;51.87;48.47;66.42;;
68945;Laerm;55984;48.790;8.990;2023-04-25T10:15:35;52.37;48.45;67.68;;
68945;Laerm;55984;48.790;8.990;2023-04-25T10:18:02;52.30;47.95;59.56;;
68945;Laerm;55984;48.790;8.990;2023-04-25T10:20:29;51.87;48.15;63.19;;
68945;Laerm;55984;48.790;8.990;2023-04-25T10:22:59;50.71;48.14;61.15;;
68945;Laerm;55984;48.790;8.990;2023-04-25T10:25:30;50.77;48.08;61.40;;
68945;Laerm;55984;48.790;8.990;2023-04-25T10:27:56;50.85;46.34;61.07;;
68945;Laerm;55984;48.790;8.990;2023-04-25T10:30:22;51.78;46.86;64.34;;
68945;Laerm;55984;48.790;8.990;2023-04-25T10:32:48;51.04;46.78;62.73;;
68945;Laerm;55984;48.790;8.990;2023-04-25T10:35:34;50.07;47.18;57.54;;
68945;Laerm;55984;48.790;8.990;2023-04-25T10:38:08;50.58;46.62;60.94;;
68945;Laerm;55984;48.790;8.990;2023-04-25T10:40:34;50.25;46.82;64.19;;
68945;Laerm;55984;48.790;8.990;2023-04-25T10:45:59;50.92;46.09;64.18;;
68945;Laerm;55984;48.790;8.990;2023-04-25T10:48:29;50.60;41.32;65.47;;
68945;Laerm;55984;48.790;8.990;2023-04-25T10:51:09;47.37;42.07;65.45;;
68945;Laerm;55984;48.790;8.990;2023-04-25T10:53:35;47.78;41.90;65.91;;
68945;Laerm;55984;48.790;8.990;2023-04-25T10:56:16;46.67;41.14;56.87;;
68945;Laerm;55984;48.790;8.990;2023-04-25T10:58:44;47.55;40.79;61.86;;
68945;Laerm;55984;48.790;8.990;2023-04-25T11:01:10;46.15;40.84;57.25;;
68945;Laerm;55984;48.790;8.990;2023-04-25T11:03:41;54.38;40.64;70.86;;
68945;Laerm;55984;48.790;8.990;2023-04-25T11:06:26;56.72;41.88;64.10;;
68945;Laerm;55984;48.790;8.990;2023-04-25T11:08:54;56.22;51.62;62.61;;
68945;Laerm;55984;48.790;8.990;2023-04-25T11:11:20;49.98;42.54;63.44;;
68945;Laerm;55984;48.790;8.990;2023-04-25T11:13:48;58.18;43.32;69.37;;
68945;Laerm;55984;48.790;8.990;2023-04-25T11:16:15;55.83;39.23;66.40;;
68945;Laerm;55984;48.790;8.990;2023-04-25T11:18:44;50.80;40.34;66.40;;
68945;Laerm;55984;48.790;8.990;2023-04-25T11:21:11;56.45;42.02;66.65;;
68945;Laerm;55984;48.790;8.990;2023-04-25T11:23:37;54.25;39.38;66.12;;
68945;Laerm;55984;48.790;8.990;2023-04-25T11:26:03;53.07;43.52;57.45;;
68945;Laerm;55984;48.790;8.990;2023-04-25T11:28:29;52.13;43.25;61.91;;
68945;Laerm;55984;48.790;8.990;2023-04-25T11:30:56;52.86;43.60;67.07;;
68945;Laerm;55984;48.790;8.990;2023-04-25T11:33:25;53.27;43.75;65.59;;
68945;Laerm;55984;48.790;8.990;2023-04-25T11:35:55;53.90;44.11;70.95;;
68945;Laerm;55984;48.790;8.990;2023-04-25T11:38:22;53.83;43.65;73.59;;
68945;Laerm;55984;48.790;8.990;2023-04-25T11:40:51;48.88;45.17;58.15;;
68945;Laerm;55984;48.790;8.990;2023-04-25T11:43:20;49.13;44.12;66.37;;
68945;Laerm;55984;48.790;8.990;2023-04-25T11:45:50;52.91;43.88;59.31;;
68945;Laerm;55984;48.790;8.990;2023-04-25T11:48:17;50.02;45.41;63.85;;
68945;Laerm;55984;48.790;8.990;2023-04-25T11:50:43;53.49;45.44;65.05;;
68945;Laerm;55984;48.790;8.990;2023-04-25T11:53:09;52.64;45.49;66.63;;
68945;Laerm;55984;48.790;8.990;2023-04-25T11:55:36;52.45;45.53;68.07;;
68945;Laerm;55984;48.790;8.990;2023-04-25T11:58:03;53.07;46.55;58.52;;
68945;Laerm;55984;48.790;8.990;2023-04-25T12:00:30;52.95;47.90;62.64;;
68945;Laerm;55984;48.790;8.990;2023-04-25T12:02:57;56.52;50.04;67.23;;
68945;Laerm;55984;48.790;8.990;2023-04-25T12:05:25;54.47;48.76;69.99;;
68945;Laerm;55984;48.790;8.990;2023-04-25T12:07:52;51.09;46.91;66.17;;
68945;Laerm;55984;48.790;8.990;2023-04-25T12:10:19;51.22;46.20;60.45;;
68945;Laerm;55984;48.790;8.990;2023-04-25T12:12:47;50.25;46.29;59.09;;
68945;Laerm;55984;48.790;8.990;2023-04-25T12:15:18;49.06;45.15;63.38;;
68945;Laerm;55984;48.790;8.990;2023-04-25T12:17:54;51.93;45.32;66.54;;
68945;Laerm;55984;48.790;8.990;2023-04-25T12:20:26;48.98;45.68;65.92;;
68945;Laerm;55984;48.790;8.990;2023-04-25T12:22:52;47.98;45.01;60.07;;
68945;Laerm;55984;48.790;8.990;2023-04-25T12:25:37;51.11;44.66;65.60;;
68945;Laerm;55984;48.790;8.990;2023-04-25T12:28:25;50.10;46.01;58.75;;
68945;Laerm;55984;48.790;8.990;2023-04-25T12:33:22;50.02;47.17;55.60;;
68945;Laerm;55984;48.790;8.990;2023-04-25T12:35:48;49.26;46.85;54.96;;
68945;Laerm;55984;48.790;8.990;2023-04-25T12:38:25;51.26;46.23;66.96;;
68945;Laerm;55984;48.790;8.990;2023-04-25T12:40:52;53.27;45.96;67.91;;
68945;Laerm;55984;48.790;8.990;2023-04-25T12:43:20;54.82;46.28;70.66;;
68945;Laerm;55984;48.790;8.990;2023-04-25T12:45:51;48.16;43.15;64.40;;
68945;Laerm;55984;48.790;8.990;2023-04-25T12:48:19;50.12;44.49;67.56;;
68945;Laerm;55984;48.790;8.990;2023-04-25T12:50:49;49.63;45.33;61.59;;
68945;Laerm;55984;48.790;8.990;2023-04-25T12:53:21;49.73;43.40;63.72;;
68945;Laerm;55984;48.790;8.990;2023-04-25T12:55:50;49.55;45.08;63.80;;
68945;Laerm;55984;48.790;8.990;2023-04-25T12:58:18;54.09;45.52;70.45;;
68945;Laerm;55984;48.790;8.990;2023-04-25T13:00:45;49.02;44.37;65.59;;
68945;Laerm;55984;48.790;8.990;2023-04-25T13:03:11;51.12;44.94;65.49;;
68945;Laerm;55984;48.790;8.990;2023-04-25T13:05:39;49.11;45.31;60.03;;
68945;Laerm;55984;48.790;8.990;2023-04-25T13:08:06;48.39;44.86;66.67;;
68945;Laerm;55984;48.790;8.990;2023-04-25T13:10:32;47.73;44.27;58.99;;
68945;Laerm;55984;48.790;8.990;2023-04-25T13:12:59;49.06;44.40;60.21;;
68945;Laerm;55984;48.790;8.990;2023-04-25T13:15:26;50.54;45.89;63.68;;
68945;Laerm;55984;48.790;8.990;2023-04-25T13:17:52;52.98;46.60;67.19;;
68945;Laerm;55984;48.790;8.990;2023-04-25T13:20:18;55.59;45.90;71.17;;
68945;Laerm;55984;48.790;8.990;2023-04-25T13:22:47;53.64;45.34;70.49;;
68945;Laerm;55984;48.790;8.990;2023-04-25T13:25:13;47.83;44.59;53.59;;
68945;Laerm;55984;48.790;8.990;2023-04-25T13:27:40;49.58;44.82;62.29;;
68945;Laerm;55984;48.790;8.990;2023-04-25T13:30:06;48.34;44.67;65.08;;
68945;Laerm;55984;48.790;8.990;2023-04-25T13:32:36;48.75;43.26;67.10;;
68945;Laerm;55984;48.790;8.990;2023-04-25T13:35:11;48.12;44.23;54.28;;
68945;Laerm;55984;48.790;8.990;2023-04-25T13:37:37;49.11;44.97;60.54;;
68945;Laerm;55984;48.790;8.990;2023-04-25T13:40:09;51.11;45.00;64.07;;
68945;Laerm;55984;48.790;8.990;2023-04-25T13:42:36;50.82;45.70;70.27;;
68945;Laerm;55984;48.790;8.990;2023-04-25T13:45:03;50.39;46.36;66.65;;
68945;Laerm;55984;48.790;8.990;2023-04-25T13:47:44;51.06;46.34;63.27;;
68945;Laerm;55984;48.790;8.990;2023-04-25T13:50:10;49.62;45.31;61.60;;
68945;Laerm;55984;48.790;8.990;2023-04-25T13:52:36;48.08;43.62;53.89;;
68945;Laerm;55984;48.790;8.990;2023-04-25T13:55:03;49.00;44.72;60.96;;